Time;durP1;ratioP1;P1;durP2;ratioP2;P2;SDS_P1;SDS_P2;PMS_P1;PMS_P2;Temp;Humidity;BMP_temperature;BMP_pressure;BME280_temperature;BME280_humidity;BME280_pressure;Samples;Min_cycle;Max_cycle;Signal;HPM_P1;HPM_P2
2023/08/23 00:00:51;;;;;;;5.65;4.20;;;;;;;;;;4893321;29;20298;-82
2023/08/23 00:03:18;;;;;;;6.32;4.30;;;;;;;;;;4893790;29;20296;-82
2023/08/23 00:05:46;;;;;;;5.15;4.70;;;;;;;;;;4894252;29;20208;-82
2023/08/23 00:08:12;;;;;;;6.38;4.97;;;;;;;;;;4892967;29;20212;-82
2023/08/23 00:10:42;;;;;;;6.35;5.05;;;;;;;;;;4893277;29;20780;-82
2023/08/23 00:13:09;;;;;;;7.82;4.57;;;;;;;;;;4893878;29;20205;-82
2023/08/23 00:15:42;;;;;;;6.22;4.13;;;;;;;;;;4893254;29;20679;-83
2023/08/23 00:18:09;;;;;;;5.03;4.68;;;;;;;;;;4893165;29;20633;-82
2023/08/23 00:20:36;;;;;;;4.70;4.35;;;;;;;;;;4893248;29;20205;-82
2023/08/23 00:23:04;;;;;;;4.35;4.05;;;;;;;;;;4892404;29;20704;-82
2023/08/23 00:25:31;;;;;;;6.35;5.03;;;;;;;;;;4892355;29;20212;-83
2023/08/23 00:28:00;;;;;;;4.45;4.05;;;;;;;;;;4893309;29;20215;-82
2023/08/23 00:30:28;;;;;;;4.80;4.05;;;;;;;;;;4874382;29;20208;-83
2023/08/23 00:32:55;;;;;;;5.55;4.90;;;;;;;;;;4874111;29;20217;-82
2023/08/23 00:35:22;;;;;;;6.75;5.32;;;;;;;;;;4875074;29;20217;-83
2023/08/23 00:37:49;;;;;;;7.53;5.20;;;;;;;;;;4873285;29;20232;-81
2023/08/23 00:40:17;;;;;;;5.45;5.05;;;;;;;;;;4874400;29;20210;-82
2023/08/23 00:42:44;;;;;;;5.85;5.22;;;;;;;;;;4873903;29;20236;-83
2023/08/23 00:45:14;;;;;;;11.65;4.97;;;;;;;;;;4874057;29;20209;-82
2023/08/23 00:47:41;;;;;;;4.32;3.85;;;;;;;;;;4874149;29;20209;-82
2023/08/23 00:50:08;;;;;;;5.35;4.85;;;;;;;;;;4874400;29;20209;-81
2023/08/23 00:52:36;;;;;;;4.82;4.40;;;;;;;;;;4873875;29;20220;-82
2023/08/23 00:55:03;;;;;;;8.65;5.20;;;;;;;;;;4869481;29;20334;-83
2023/08/23 00:57:31;;;;;;;6.82;4.95;;;;;;;;;;4839294;29;20309;-82
2023/08/23 00:59:59;;;;;;;5.15;4.75;;;;;;;;;;4854768;29;20395;-82
2023/08/23 01:02:28;;;;;;;7.85;4.95;;;;;;;;;;4855322;29;20688;-82
2023/08/23 01:04:55;;;;;;;6.63;5.35;;;;;;;;;;4838641;29;20244;-82
2023/08/23 01:07:27;;;;;;;6.78;4.72;;;;;;;;;;4856034;29;20202;-82
2023/08/23 01:09:58;;;;;;;6.63;6.03;;;;;;;;;;4855147;29;20226;-81
2023/08/23 01:12:29;;;;;;;8.02;4.88;;;;;;;;;;4856076;29;20262;-82
2023/08/23 01:15:00;;;;;;;6.35;4.97;;;;;;;;;;4855428;29;20241;-82
2023/08/23 01:17:28;;;;;;;5.50;5.00;;;;;;;;;;4854726;29;20207;-82
2023/08/23 01:19:58;;;;;;;6.78;4.60;;;;;;;;;;4855498;29;20203;-82
2023/08/23 01:22:33;;;;;;;8.27;5.22;;;;;;;;;;4859059;29;20210;-82
2023/08/23 01:25:02;;;;;;;7.30;5.40;;;;;;;;;;4859545;29;20237;-82
2023/08/23 01:27:32;;;;;;;9.88;5.80;;;;;;;;;;4842982;29;20206;-81
2023/08/23 01:29:58;;;;;;;5.40;4.80;;;;;;;;;;4873684;29;20248;-81
2023/08/23 01:32:33;;;;;;;5.35;4.45;;;;;;;;;;4878511;29;20209;-82
2023/08/23 01:35:03;;;;;;;9.38;5.70;;;;;;;;;;4879121;29;20273;-82
2023/08/23 01:37:32;;;;;;;7.90;5.88;;;;;;;;;;4892669;29;20261;-82
2023/08/23 01:40:00;;;;;;;6.75;5.10;;;;;;;;;;4885215;29;20291;-83
2023/08/23 01:42:29;;;;;;;10.00;5.72;;;;;;;;;;4877565;29;20218;-81
2023/08/23 01:44:57;;;;;;;7.72;6.05;;;;;;;;;;4876484;29;20300;-82
2023/08/23 01:47:26;;;;;;;5.60;5.00;;;;;;;;;;4860104;29;20205;-82
2023/08/23 01:49:54;;;;;;;5.13;4.72;;;;;;;;;;4878009;29;20209;-81
2023/08/23 01:52:22;;;;;;;5.47;5.03;;;;;;;;;;4877125;29;20588;-84
2023/08/23 01:54:49;;;;;;;5.38;4.63;;;;;;;;;;4877037;29;20225;-81
2023/08/23 01:57:17;;;;;;;9.55;5.22;;;;;;;;;;4878177;29;20296;-82
2023/08/23 01:59:49;;;;;;;8.98;5.25;;;;;;;;;;4876322;29;20312;-82
2023/08/23 02:02:17;;;;;;;5.63;5.20;;;;;;;;;;4877234;29;20202;-82
2023/08/23 02:04:45;;;;;;;10.65;6.15;;;;;;;;;;4877300;29;20321;-83
2023/08/23 02:07:12;;;;;;;8.68;6.32;;;;;;;;;;4878172;29;20232;-82
2023/08/23 02:09:39;;;;;;;29.10;15.10;;;;;;;;;;4878878;29;20225;-82
2023/08/23 02:12:07;;;;;;;14.52;9.30;;;;;;;;;;4878127;29;20209;-82
2023/08/23 02:14:35;;;;;;;6.80;6.10;;;;;;;;;;4877229;29;20220;-82
2023/08/23 02:17:04;;;;;;;9.25;6.43;;;;;;;;;;4876566;29;20209;-82
2023/08/23 02:19:31;;;;;;;8.52;6.13;;;;;;;;;;4876901;29;20304;-82
2023/08/23 02:21:57;;;;;;;10.52;6.53;;;;;;;;;;4877258;29;20696;-84
2023/08/23 02:24:24;;;;;;;5.90;5.25;;;;;;;;;;4877758;29;20301;-82
2023/08/23 02:26:52;;;;;;;6.65;5.43;;;;;;;;;;4877029;29;20232;-82
2023/08/23 02:29:19;;;;;;;9.73;6.88;;;;;;;;;;4876411;29;20248;-82
2023/08/23 02:31:46;;;;;;;6.03;5.53;;;;;;;;;;4875766;29;20672;-82
2023/08/23 02:34:15;;;;;;;11.40;5.32;;;;;;;;;;4877742;29;20608;-82
2023/08/23 02:36:42;;;;;;;12.27;6.70;;;;;;;;;;4876544;29;20249;-82
2023/08/23 02:39:10;;;;;;;9.32;6.07;;;;;;;;;;4876094;29;20544;-83
2023/08/23 02:41:37;;;;;;;6.53;5.40;;;;;;;;;;4876462;29;20233;-82
2023/08/23 02:44:05;;;;;;;7.15;5.20;;;;;;;;;;4875873;29;20598;-81
2023/08/23 02:46:32;;;;;;;10.77;6.15;;;;;;;;;;4875845;29;20205;-83
2023/08/23 02:48:59;;;;;;;6.22;5.60;;;;;;;;;;4876806;29;20629;-82
2023/08/23 02:51:28;;;;;;;7.45;5.68;;;;;;;;;;4875593;29;20216;-82
2023/08/23 02:53:56;;;;;;;8.45;6.78;;;;;;;;;;4876361;29;20595;-82
2023/08/23 02:56:24;;;;;;;5.60;5.07;;;;;;;;;;4876094;29;20288;-81
2023/08/23 02:58:51;;;;;;;8.05;7.07;;;;;;;;;;4875617;29;20645;-82
2023/08/23 03:01:19;;;;;;;10.07;6.93;;;;;;;;;;4875760;29;20293;-82
2023/08/23 03:03:47;;;;;;;9.73;7.53;;;;;;;;;;4875441;29;20710;-82
2023/08/23 03:06:14;;;;;;;12.68;6.93;;;;;;;;;;4875677;29;20227;-81
2023/08/23 03:08:42;;;;;;;23.88;7.00;;;;;;;;;;4875502;29;20614;-81
2023/08/23 03:11:10;;;;;;;11.00;7.65;;;;;;;;;;4875366;29;20402;-82
2023/08/23 03:13:37;;;;;;;12.23;8.35;;;;;;;;;;4875405;29;20215;-83
2023/08/23 03:16:07;;;;;;;11.63;7.30;;;;;;;;;;4875247;29;20698;-81
2023/08/23 03:18:34;;;;;;;10.85;7.70;;;;;;;;;;4876065;29;20224;-82
2023/08/23 03:21:02;;;;;;;17.58;7.05;;;;;;;;;;4874063;29;20680;-82
2023/08/23 03:23:31;;;;;;;10.20;6.45;;;;;;;;;;4874104;29;20316;-82
2023/08/23 03:25:59;;;;;;;15.75;7.55;;;;;;;;;;4876013;29;20205;-82
2023/08/23 03:28:26;;;;;;;9.50;6.90;;;;;;;;;;4875596;29;20241;-83
2023/08/23 03:30:53;;;;;;;9.60;6.38;;;;;;;;;;4874740;29;20232;-81
2023/08/23 03:33:21;;;;;;;12.57;6.88;;;;;;;;;;4875674;29;20680;-81
2023/08/23 03:35:54;;;;;;;11.70;7.35;;;;;;;;;;4875228;29;20205;-82
2023/08/23 03:38:24;;;;;;;8.10;5.72;;;;;;;;;;4875528;29;20267;-81
2023/08/23 03:40:51;;;;;;;9.20;6.65;;;;;;;;;;4875758;29;20228;-82
2023/08/23 03:43:19;;;;;;;7.85;5.90;;;;;;;;;;4873933;29;20277;-82
2023/08/23 03:45:52;;;;;;;11.40;7.38;;;;;;;;;;4875102;29;20229;-83
2023/08/23 03:48:21;;;;;;;10.27;6.82;;;;;;;;;;4876293;29;20727;-82
2023/08/23 03:50:54;;;;;;;6.97;5.80;;;;;;;;;;4875161;29;20315;-83
2023/08/23 03:53:22;;;;;;;8.27;6.32;;;;;;;;;;4875853;29;20269;-82
2023/08/23 03:55:53;;;;;;;9.50;6.13;;;;;;;;;;4874898;29;20262;-82
2023/08/23 03:58:22;;;;;;;11.55;6.13;;;;;;;;;;4874979;29;20206;-81
2023/08/23 04:00:50;;;;;;;7.43;6.13;;;;;;;;;;4874688;29;20690;-82
2023/08/23 04:03:20;;;;;;;9.85;6.53;;;;;;;;;;4875168;29;20292;-81
2023/08/23 04:05:49;;;;;;;10.80;7.25;;;;;;;;;;4875066;29;20329;-82
2023/08/23 04:08:16;;;;;;;9.05;6.40;;;;;;;;;;4875625;29;20300;-82
2023/08/23 04:10:47;;;;;;;6.78;6.15;;;;;;;;;;4875318;29;20225;-82
2023/08/23 04:13:15;;;;;;;8.15;6.20;;;;;;;;;;4874918;29;20258;-82
2023/08/23 04:15:45;;;;;;;8.43;5.85;;;;;;;;;;4874824;29;20197;-83
2023/08/23 04:18:13;;;;;;;6.90;6.22;;;;;;;;;;4875580;29;20286;-82
2023/08/23 04:20:45;;;;;;;5.30;4.88;;;;;;;;;;4874236;29;20292;-83
2023/08/23 04:23:12;;;;;;;7.10;6.20;;;;;;;;;;4876231;29;20674;-82
2023/08/23 04:25:40;;;;;;;5.85;5.35;;;;;;;;;;4874852;29;20241;-82
2023/08/23 04:28:07;;;;;;;8.10;5.55;;;;;;;;;;4875186;29;20213;-82
2023/08/23 04:30:35;;;;;;;7.57;6.13;;;;;;;;;;4875936;29;20296;-82
2023/08/23 04:33:04;;;;;;;6.82;6.20;;;;;;;;;;4876322;29;20228;-83
2023/08/23 04:35:33;;;;;;;6.13;5.60;;;;;;;;;;4877274;29;20205;-83
2023/08/23 04:38:04;;;;;;;7.78;5.78;;;;;;;;;;4879026;29;20309;-83
2023/08/23 04:40:32;;;;;;;5.50;5.10;;;;;;;;;;4874977;29;20193;-83
2023/08/23 04:43:00;;;;;;;6.90;5.88;;;;;;;;;;4877614;29;20285;-83
2023/08/23 04:45:28;;;;;;;8.95;6.05;;;;;;;;;;4875796;29;20240;-82
2023/08/23 04:47:56;;;;;;;7.88;6.43;;;;;;;;;;4876131;29;20217;-83
2023/08/23 04:50:25;;;;;;;7.13;6.30;;;;;;;;;;4875081;29;20205;-83
2023/08/23 04:52:53;;;;;;;6.30;5.80;;;;;;;;;;4875534;29;20269;-84
2023/08/23 04:55:22;;;;;;;6.75;6.00;;;;;;;;;;4878821;29;20209;-82
2023/08/23 04:57:53;;;;;;;8.05;5.60;;;;;;;;;;4878280;29;20209;-83
2023/08/23 05:00:21;;;;;;;7.20;6.50;;;;;;;;;;4878238;29;20265;-83
2023/08/23 05:02:52;;;;;;;6.70;5.93;;;;;;;;;;4878240;29;20268;-84
2023/08/23 05:05:22;;;;;;;9.93;6.53;;;;;;;;;;4878479;29;20698;-83
2023/08/23 05:07:53;;;;;;;7.13;6.40;;;;;;;;;;4877845;29;20237;-83
2023/08/23 05:10:22;;;;;;;7.68;6.85;;;;;;;;;;4878240;29;20303;-82
2023/08/23 05:12:49;;;;;;;9.50;6.28;;;;;;;;;;4874024;29;20216;-82
2023/08/23 05:15:17;;;;;;;7.45;6.80;;;;;;;;;;4867867;29;20229;-81
2023/08/23 05:17:45;;;;;;;7.75;6.38;;;;;;;;;;4870582;29;20280;-82
2023/08/23 05:20:15;;;;;;;8.07;7.28;;;;;;;;;;4876606;29;20209;-82
2023/08/23 05:22:46;;;;;;;9.07;6.57;;;;;;;;;;4846115;29;20216;-82
2023/08/23 05:25:16;;;;;;;7.47;6.65;;;;;;;;;;4868213;29;20231;-81
2023/08/23 05:27:44;;;;;;;6.93;6.32;;;;;;;;;;4878082;29;20284;-82
2023/08/23 05:30:12;;;;;;;6.57;5.97;;;;;;;;;;4882270;29;20248;-82
2023/08/23 05:32:41;;;;;;;7.82;6.68;;;;;;;;;;4881607;29;20219;-82
2023/08/23 05:35:10;;;;;;;7.43;6.78;;;;;;;;;;4874486;29;20222;-83
2023/08/23 05:37:40;;;;;;;8.23;7.50;;;;;;;;;;4876769;29;20254;-82
2023/08/23 05:40:08;;;;;;;6.95;6.30;;;;;;;;;;4892795;29;20212;-82
2023/08/23 05:42:37;;;;;;;6.93;6.40;;;;;;;;;;4879204;29;20712;-81
2023/08/23 05:45:05;;;;;;;7.68;6.97;;;;;;;;;;4877142;29;20968;-82
2023/08/23 05:47:32;;;;;;;7.95;6.88;;;;;;;;;;4879142;29;20220;-81
2023/08/23 05:49:59;;;;;;;8.55;7.65;;;;;;;;;;4880901;29;20217;-82
2023/08/23 05:52:28;;;;;;;7.53;6.93;;;;;;;;;;4877629;29;20754;-81
2023/08/23 05:54:56;;;;;;;10.48;6.82;;;;;;;;;;4877675;29;20276;-82
2023/08/23 05:57:23;;;;;;;6.75;6.25;;;;;;;;;;4877310;29;20201;-80
2023/08/23 05:59:53;;;;;;;7.50;6.30;;;;;;;;;;4878899;29;20312;-84
2023/08/23 06:02:21;;;;;;;6.25;5.88;;;;;;;;;;4868627;29;20220;-82
2023/08/23 06:04:49;;;;;;;7.50;6.80;;;;;;;;;;4878114;29;20233;-82
2023/08/23 06:07:16;;;;;;;7.22;6.63;;;;;;;;;;4877377;29;20260;-81
2023/08/23 06:09:45;;;;;;;7.22;6.63;;;;;;;;;;4877648;29;20247;-82
2023/08/23 06:12:15;;;;;;;7.35;6.80;;;;;;;;;;4877991;29;20564;-81
2023/08/23 06:14:43;;;;;;;12.85;7.47;;;;;;;;;;4868094;29;20599;-83
2023/08/23 06:17:13;;;;;;;8.48;7.65;;;;;;;;;;4877992;29;20225;-83
2023/08/23 06:19:42;;;;;;;14.57;6.68;;;;;;;;;;4889472;29;20224;-82
2023/08/23 06:22:10;;;;;;;8.45;6.70;;;;;;;;;;4864908;29;20225;-84
2023/08/23 06:24:38;;;;;;;7.82;7.13;;;;;;;;;;4869130;29;20211;-82
2023/08/23 06:27:05;;;;;;;6.88;6.35;;;;;;;;;;4885974;29;20328;-82
2023/08/23 06:29:34;;;;;;;11.32;7.75;;;;;;;;;;4880027;29;20235;-82
2023/08/23 06:32:02;;;;;;;6.78;6.07;;;;;;;;;;4875825;29;20730;-82
2023/08/23 06:34:31;;;;;;;8.32;7.57;;;;;;;;;;4876931;29;20686;-83
2023/08/23 06:37:00;;;;;;;10.57;7.15;;;;;;;;;;4875950;29;20216;-82
2023/08/23 06:39:28;;;;;;;8.95;7.35;;;;;;;;;;4889279;29;20224;-83
2023/08/23 06:41:56;;;;;;;8.50;7.70;;;;;;;;;;4895932;29;20201;-82
2023/08/23 06:44:24;;;;;;;9.23;7.70;;;;;;;;;;4896224;29;20200;-81
2023/08/23 06:46:52;;;;;;;6.82;6.22;;;;;;;;;;4896364;29;20232;-84
2023/08/23 06:49:20;;;;;;;8.52;6.63;;;;;;;;;;4896611;29;20236;-81
2023/08/23 06:51:49;;;;;;;9.23;8.07;;;;;;;;;;4895363;29;20744;-83
2023/08/23 06:54:19;;;;;;;7.55;6.88;;;;;;;;;;4895415;29;20374;-83
2023/08/23 06:56:49;;;;;;;8.77;7.95;;;;;;;;;;4895701;29;20228;-83
2023/08/23 06:59:17;;;;;;;7.53;6.93;;;;;;;;;;4895863;29;20264;-82
2023/08/23 07:01:47;;;;;;;7.13;6.53;;;;;;;;;;4896807;29;20741;-83
2023/08/23 07:04:15;;;;;;;10.00;7.25;;;;;;;;;;4901968;29;20488;-83
2023/08/23 07:06:45;;;;;;;7.60;6.95;;;;;;;;;;4910277;29;20382;-82
2023/08/23 07:09:14;;;;;;;8.25;7.55;;;;;;;;;;4906366;29;20247;-83
2023/08/23 07:11:43;;;;;;;7.95;7.35;;;;;;;;;;4895418;29;20216;-83
2023/08/23 07:14:10;;;;;;;8.05;7.20;;;;;;;;;;4894193;29;20693;-82
2023/08/23 07:16:37;;;;;;;7.22;6.53;;;;;;;;;;4893861;29;20208;-82
2023/08/23 07:19:05;;;;;;;9.57;7.43;;;;;;;;;;4894136;29;20215;-82
2023/08/23 07:21:34;;;;;;;7.78;7.07;;;;;;;;;;4893959;29;20239;-82
2023/08/23 07:24:02;;;;;;;8.00;7.35;;;;;;;;;;4893425;29;20211;-83
2023/08/23 07:26:33;;;;;;;7.28;6.57;;;;;;;;;;4894207;29;20236;-82
2023/08/23 07:29:00;;;;;;;10.30;7.07;;;;;;;;;;4894511;29;20244;-82
2023/08/23 07:31:28;;;;;;;13.00;7.28;;;;;;;;;;4893706;29;20204;-83
2023/08/23 07:33:55;;;;;;;7.03;6.43;;;;;;;;;;4893513;29;20537;-83
2023/08/23 07:36:25;;;;;;;7.72;7.03;;;;;;;;;;4893231;29;20219;-84
2023/08/23 07:38:55;;;;;;;7.68;7.00;;;;;;;;;;4894317;29;20678;-82
2023/08/23 07:41:23;;;;;;;11.85;7.50;;;;;;;;;;4894406;29;20207;-82
2023/08/23 07:43:52;;;;;;;13.45;6.95;;;;;;;;;;4894418;29;20208;-82
2023/08/23 07:46:20;;;;;;;8.07;7.28;;;;;;;;;;4884567;29;20324;-82
2023/08/23 07:48:47;;;;;;;9.25;7.40;;;;;;;;;;4876221;29;20212;-82
2023/08/23 07:51:14;;;;;;;7.28;6.63;;;;;;;;;;4876489;29;20209;-80
2023/08/23 07:53:43;;;;;;;14.55;7.20;;;;;;;;;;4875750;29;20232;-82
2023/08/23 07:56:12;;;;;;;7.90;7.13;;;;;;;;;;4875732;29;20237;-80
2023/08/23 07:58:41;;;;;;;7.93;7.30;;;;;;;;;;4875423;29;20532;-81
2023/08/23 08:01:09;;;;;;;9.77;7.35;;;;;;;;;;4875192;29;20257;-83
2023/08/23 08:03:37;;;;;;;7.75;6.70;;;;;;;;;;4874662;29;20292;-80
2023/08/23 08:06:04;;;;;;;8.82;7.53;;;;;;;;;;4875175;29;20297;-83
2023/08/23 08:08:32;;;;;;;10.30;7.78;;;;;;;;;;4874588;29;20284;-83
2023/08/23 08:10:59;;;;;;;8.32;7.30;;;;;;;;;;4875363;29;20209;-83
2023/08/23 08:13:27;;;;;;;10.38;7.50;;;;;;;;;;4875484;29;20205;-83
2023/08/23 08:15:54;;;;;;;11.55;7.00;;;;;;;;;;4874887;29;20280;-82
2023/08/23 08:18:23;;;;;;;7.57;6.97;;;;;;;;;;4874444;29;20614;-81
2023/08/23 08:20:50;;;;;;;7.07;6.47;;;;;;;;;;4875000;29;20209;-83
2023/08/23 08:23:19;;;;;;;10.68;7.20;;;;;;;;;;4874999;29;20308;-82
2023/08/23 08:25:46;;;;;;;6.80;6.20;;;;;;;;;;4876282;29;20233;-82
2023/08/23 08:28:14;;;;;;;7.22;6.63;;;;;;;;;;4874541;29;20213;-82
2023/08/23 08:30:43;;;;;;;7.28;6.38;;;;;;;;;;4874414;29;20285;-82
2023/08/23 08:33:13;;;;;;;7.13;6.63;;;;;;;;;;4874939;29;20590;-83
2023/08/23 08:35:42;;;;;;;7.38;6.68;;;;;;;;;;4869842;29;20335;-82
2023/08/23 08:38:09;;;;;;;12.55;6.38;;;;;;;;;;4872970;29;20268;-81
2023/08/23 08:40:40;;;;;;;7.07;6.40;;;;;;;;;;4872773;29;20264;-84
2023/08/23 08:43:08;;;;;;;6.93;5.82;;;;;;;;;;4873822;29;20236;-82
2023/08/23 08:45:36;;;;;;;9.32;6.85;;;;;;;;;;4870845;29;20240;-80
2023/08/23 08:48:05;;;;;;;6.63;6.18;;;;;;;;;;4873078;29;20237;-82
2023/08/23 08:50:34;;;;;;;6.35;5.95;;;;;;;;;;4873112;29;20228;-80
2023/08/23 08:53:06;;;;;;;10.98;6.45;;;;;;;;;;4874362;29;20208;-82
2023/08/23 08:55:36;;;;;;;7.32;5.80;;;;;;;;;;4874689;29;20661;-80
2023/08/23 08:58:03;;;;;;;6.35;5.60;;;;;;;;;;4874319;29;20201;-81
2023/08/23 09:00:33;;;;;;;6.53;5.88;;;;;;;;;;4873967;29;20260;-81
2023/08/23 09:03:01;;;;;;;6.05;5.55;;;;;;;;;;4875215;29;20280;-81
2023/08/23 09:05:31;;;;;;;5.20;4.80;;;;;;;;;;4874653;29;20262;-81
2023/08/23 09:07:58;;;;;;;5.45;5.03;;;;;;;;;;4868912;29;20320;-83
2023/08/23 09:10:29;;;;;;;6.18;5.68;;;;;;;;;;4874185;29;20244;-83
2023/08/23 09:12:56;;;;;;;6.03;5.30;;;;;;;;;;4869682;29;20237;-83
2023/08/23 09:15:25;;;;;;;5.43;4.80;;;;;;;;;;4873712;29;20229;-83
2023/08/23 09:17:56;;;;;;;5.43;4.97;;;;;;;;;;4870875;29;20320;-83
2023/08/23 09:20:24;;;;;;;5.45;5.05;;;;;;;;;;4872990;29;20312;-82
2023/08/23 09:22:52;;;;;;;5.53;5.13;;;;;;;;;;4866367;29;20244;-84
2023/08/23 09:25:21;;;;;;;5.20;4.80;;;;;;;;;;4872143;29;20685;-83
2023/08/23 09:27:50;;;;;;;5.38;5.07;;;;;;;;;;4871439;29;20746;-83
2023/08/23 09:30:17;;;;;;;5.05;4.65;;;;;;;;;;4872045;29;20269;-83
2023/08/23 09:32:44;;;;;;;5.45;4.82;;;;;;;;;;4870154;29;20360;-83
2023/08/23 09:35:12;;;;;;;5.20;4.90;;;;;;;;;;4873242;29;20393;-82
2023/08/23 09:37:40;;;;;;;4.75;4.53;;;;;;;;;;4878668;29;20260;-83
2023/08/23 09:40:18;;;;;;;4.47;4.28;;;;;;;;;;4882318;29;20320;-82
2023/08/23 09:42:46;;;;;;;5.13;4.82;;;;;;;;;;4874820;29;20220;-83
2023/08/23 09:45:17;;;;;;;5.07;4.78;;;;;;;;;;4876147;29;20603;-82
2023/08/23 09:47:47;;;;;;;4.63;4.30;;;;;;;;;;4875222;29;20397;-82
2023/08/23 09:50:16;;;;;;;5.00;4.70;;;;;;;;;;4878325;29;20774;-82
2023/08/23 09:52:45;;;;;;;4.45;4.25;;;;;;;;;;4887555;29;20420;-82
2023/08/23 09:55:13;;;;;;;5.05;4.65;;;;;;;;;;4889446;29;20220;-81
2023/08/23 09:57:40;;;;;;;4.38;4.18;;;;;;;;;;4894708;29;20343;-81
2023/08/23 10:00:10;;;;;;;4.43;4.20;;;;;;;;;;4881424;29;20320;-82
2023/08/23 10:02:39;;;;;;;4.78;4.47;;;;;;;;;;4875826;29;20255;-82
2023/08/23 10:05:11;;;;;;;6.60;4.95;;;;;;;;;;4875987;29;20407;-83
2023/08/23 10:07:39;;;;;;;6.90;4.88;;;;;;;;;;4890949;29;20311;-83
2023/08/23 10:10:07;;;;;;;4.55;4.35;;;;;;;;;;4872506;29;20260;-82
2023/08/23 10:12:37;;;;;;;5.63;5.00;;;;;;;;;;4875883;29;20225;-83
2023/08/23 10:15:06;;;;;;;5.32;4.93;;;;;;;;;;4875290;29;20323;-83
2023/08/23 10:17:34;;;;;;;4.88;4.57;;;;;;;;;;4875408;29;20224;-82
2023/08/23 10:20:06;;;;;;;5.03;4.63;;;;;;;;;;4878823;29;20224;-84
2023/08/23 10:22:35;;;;;;;4.82;4.53;;;;;;;;;;4875783;29;20259;-83
2023/08/23 10:25:03;;;;;;;6.50;5.25;;;;;;;;;;4874691;29;20532;-83
2023/08/23 10:27:35;;;;;;;5.00;4.70;;;;;;;;;;4875879;29;20618;-84
2023/08/23 10:30:07;;;;;;;5.25;4.95;;;;;;;;;;4873675;29;20712;-82
2023/08/23 10:32:39;;;;;;;4.95;4.55;;;;;;;;;;4875480;29;20605;-83
2023/08/23 10:35:22;;;;;;;8.25;5.60;;;;;;;;;;4875201;29;20307;-82
2023/08/23 10:37:49;;;;;;;5.82;5.25;;;;;;;;;;4874926;29;20685;-84
2023/08/23 10:40:20;;;;;;;10.38;4.70;;;;;;;;;;4868987;29;20237;-83
2023/08/23 10:42:48;;;;;;;5.88;5.30;;;;;;;;;;4874327;29;20721;-83
2023/08/23 10:45:17;;;;;;;4.18;3.97;;;;;;;;;;4874318;29;20323;-84
2023/08/23 10:47:44;;;;;;;4.45;4.25;;;;;;;;;;4874328;29;20305;-83
2023/08/23 10:50:12;;;;;;;5.22;4.82;;;;;;;;;;4874795;29;20332;-83
2023/08/23 10:52:40;;;;;;;6.78;4.75;;;;;;;;;;4873982;29;20233;-83
2023/08/23 10:55:09;;;;;;;5.32;4.85;;;;;;;;;;4873711;29;20220;-83
2023/08/23 10:57:37;;;;;;;4.93;4.63;;;;;;;;;;4875103;29;20628;-82
2023/08/23 11:00:05;;;;;;;4.38;4.07;;;;;;;;;;4872022;29;20668;-83
2023/08/23 11:02:34;;;;;;;8.90;4.50;;;;;;;;;;4875418;29;20221;-83
2023/08/23 11:05:04;;;;;;;4.78;4.47;;;;;;;;;;4874633;29;20251;-82
2023/08/23 11:07:34;;;;;;;5.20;4.78;;;;;;;;;;4874287;29;20736;-83
2023/08/23 11:10:04;;;;;;;4.95;4.65;;;;;;;;;;4873760;29;20774;-82
2023/08/23 11:12:33;;;;;;;5.13;4.72;;;;;;;;;;4874246;29;20229;-82
2023/08/23 11:15:00;;;;;;;4.70;4.30;;;;;;;;;;4872958;29;20323;-81
2023/08/23 11:17:29;;;;;;;4.97;4.38;;;;;;;;;;4874319;29;20611;-82
2023/08/23 11:19:59;;;;;;;4.65;4.35;;;;;;;;;;4873141;29;20229;-83
2023/08/23 11:22:26;;;;;;;4.40;4.07;;;;;;;;;;4872405;29;20244;-83
2023/08/23 11:24:53;;;;;;;4.18;3.97;;;;;;;;;;4873095;29;20690;-82
2023/08/23 11:27:23;;;;;;;4.38;4.05;;;;;;;;;;4873911;29;20603;-82
2023/08/23 11:29:50;;;;;;;4.22;3.97;;;;;;;;;;4873303;29;20249;-82
2023/08/23 11:32:18;;;;;;;4.68;4.00;;;;;;;;;;4873081;29;20233;-83
2023/08/23 11:34:46;;;;;;;4.35;4.05;;;;;;;;;;4874181;29;20289;-83
2023/08/23 11:37:15;;;;;;;11.43;4.53;;;;;;;;;;4873581;29;20711;-83
2023/08/23 11:39:42;;;;;;;4.60;4.30;;;;;;;;;;4873395;29;20698;-83
2023/08/23 11:42:10;;;;;;;4.32;3.95;;;;;;;;;;4873761;29;20413;-83
2023/08/23 11:44:40;;;;;;;4.53;4.13;;;;;;;;;;4873950;29;20225;-82
2023/08/23 11:47:11;;;;;;;3.72;3.42;;;;;;;;;;4873781;29;20248;-82
2023/08/23 11:49:37;;;;;;;4.00;3.80;;;;;;;;;;4873630;29;20289;-84
2023/08/23 11:52:05;;;;;;;3.90;3.63;;;;;;;;;;4872741;29;20229;-82
2023/08/23 11:54:32;;;;;;;4.35;4.03;;;;;;;;;;4873560;29;20730;-82
2023/08/23 11:57:01;;;;;;;4.30;3.92;;;;;;;;;;4875303;29;20283;-83
2023/08/23 11:59:31;;;;;;;4.45;4.05;;;;;;;;;;4873429;29;20241;-81
2023/08/23 12:02:01;;;;;;;4.10;3.83;;;;;;;;;;4872722;29;20229;-82
2023/08/23 12:04:28;;;;;;;4.18;3.97;;;;;;;;;;4873493;29;20706;-83
2023/08/23 12:06:55;;;;;;;4.28;3.97;;;;;;;;;;4871813;29;20245;-81
2023/08/23 12:09:25;;;;;;;7.95;3.65;;;;;;;;;;4872978;29;20556;-82
2023/08/23 12:11:53;;;;;;;4.07;3.78;;;;;;;;;;4873089;29;20300;-82
2023/08/23 12:14:23;;;;;;;3.90;3.70;;;;;;;;;;4873662;29;20280;-82
2023/08/23 12:16:52;;;;;;;3.90;3.70;;;;;;;;;;4872201;29;20282;-83
2023/08/23 12:19:21;;;;;;;4.60;4.22;;;;;;;;;;4879656;29;20229;-82
2023/08/23 12:21:49;;;;;;;3.80;3.53;;;;;;;;;;4873117;29;20221;-83
2023/08/23 12:24:16;;;;;;;4.32;4.03;;;;;;;;;;4873016;29;20601;-81
2023/08/23 12:26:43;;;;;;;4.90;3.65;;;;;;;;;;4874277;29;20328;-82
2023/08/23 12:29:12;;;;;;;3.33;3.20;;;;;;;;;;4874116;29;20328;-82
2023/08/23 12:31:40;;;;;;;4.20;3.90;;;;;;;;;;4874554;29;20229;-81
2023/08/23 12:34:07;;;;;;;4.25;3.95;;;;;;;;;;4877722;29;20226;-82
2023/08/23 12:36:36;;;;;;;4.35;4.03;;;;;;;;;;4880730;29;20221;-81
2023/08/23 12:39:04;;;;;;;4.15;3.72;;;;;;;;;;4889892;29;20253;-82
2023/08/23 12:41:33;;;;;;;3.78;3.55;;;;;;;;;;4877896;29;20334;-81
2023/08/23 12:44:06;;;;;;;4.75;4.35;;;;;;;;;;4877446;29;20388;-83
2023/08/23 12:46:41;;;;;;;4.65;4.35;;;;;;;;;;4879342;29;20761;-81
2023/08/23 12:49:13;;;;;;;4.15;3.92;;;;;;;;;;4876749;29;20662;-82
2023/08/23 12:51:42;;;;;;;4.43;3.63;;;;;;;;;;4877418;29;20237;-82
2023/08/23 12:54:09;;;;;;;3.75;3.55;;;;;;;;;;4877349;29;20327;-84
2023/08/23 12:56:39;;;;;;;3.83;3.63;;;;;;;;;;4877401;29;20267;-82
2023/08/23 12:59:06;;;;;;;4.20;4.00;;;;;;;;;;4879452;29;20301;-83
2023/08/23 13:01:34;;;;;;;3.88;3.67;;;;;;;;;;4877067;29;20707;-81
2023/08/23 13:04:01;;;;;;;4.32;4.03;;;;;;;;;;4878312;29;20229;-80
2023/08/23 13:06:28;;;;;;;5.00;3.63;;;;;;;;;;4877914;29;21142;-81
2023/08/23 13:09:00;;;;;;;4.28;3.97;;;;;;;;;;4875925;29;20329;-82
2023/08/23 13:11:28;;;;;;;4.40;4.10;;;;;;;;;;4879306;29;20225;-82
2023/08/23 13:13:56;;;;;;;4.22;3.95;;;;;;;;;;4878053;29;20232;-82
2023/08/23 13:16:27;;;;;;;6.40;3.83;;;;;;;;;;4878763;29;20233;-84
2023/08/23 13:18:56;;;;;;;4.00;3.78;;;;;;;;;;4882788;29;20237;-82
2023/08/23 13:21:24;;;;;;;4.40;4.10;;;;;;;;;;4886236;29;20264;-82
2023/08/23 13:23:54;;;;;;;4.38;4.15;;;;;;;;;;4863306;29;20646;-81
2023/08/23 13:26:24;;;;;;;4.35;4.15;;;;;;;;;;4863826;29;20240;-82
2023/08/23 13:28:53;;;;;;;5.15;3.60;;;;;;;;;;4887083;29;20244;-83
2023/08/23 13:31:21;;;;;;;3.63;3.53;;;;;;;;;;4895567;29;20232;-81
2023/08/23 13:33:48;;;;;;;3.88;3.65;;;;;;;;;;4892279;29;20239;-83
2023/08/23 13:36:15;;;;;;;4.22;4.03;;;;;;;;;;4894346;29;20229;-82
2023/08/23 13:38:43;;;;;;;3.60;3.40;;;;;;;;;;4880910;29;20241;-82
2023/08/23 13:41:10;;;;;;;3.92;3.65;;;;;;;;;;4877339;29;20711;-81
2023/08/23 13:43:39;;;;;;;3.60;3.40;;;;;;;;;;4877001;29;20231;-82
2023/08/23 13:46:06;;;;;;;3.70;3.58;;;;;;;;;;4876203;29;20205;-82
2023/08/23 13:48:34;;;;;;;3.97;3.78;;;;;;;;;;4875449;29;20292;-81
2023/08/23 13:51:03;;;;;;;4.82;3.45;;;;;;;;;;4876357;29;20606;-82
2023/08/23 13:53:32;;;;;;;3.88;3.63;;;;;;;;;;4875377;29;20205;-82
2023/08/23 13:56:00;;;;;;;7.38;3.88;;;;;;;;;;4875909;29;20695;-83
2023/08/23 13:58:27;;;;;;;6.40;4.13;;;;;;;;;;4875834;29;20212;-83
2023/08/23 14:00:56;;;;;;;7.63;3.70;;;;;;;;;;4876570;29;20261;-82
2023/08/23 14:03:23;;;;;;;3.78;3.58;;;;;;;;;;4877652;29;20317;-83
2023/08/23 14:05:58;;;;;;;4.45;4.15;;;;;;;;;;4878315;29;20289;-82
2023/08/23 14:08:26;;;;;;;4.03;3.83;;;;;;;;;;4877109;29;20261;-83
2023/08/23 14:10:54;;;;;;;4.70;3.88;;;;;;;;;;4877782;29;20213;-82
2023/08/23 14:13:23;;;;;;;4.05;3.85;;;;;;;;;;4878132;29;20216;-81
2023/08/23 14:15:51;;;;;;;4.45;4.15;;;;;;;;;;4877219;29;20210;-81
2023/08/23 14:18:20;;;;;;;4.03;3.75;;;;;;;;;;4877295;29;20277;-82
2023/08/23 14:20:47;;;;;;;4.57;4.18;;;;;;;;;;4877449;29;20277;-82
2023/08/23 14:23:16;;;;;;;3.80;3.60;;;;;;;;;;4876774;29;20201;-83
2023/08/23 14:25:44;;;;;;;4.90;4.40;;;;;;;;;;4877463;29;20214;-81
2023/08/23 14:28:12;;;;;;;4.18;3.85;;;;;;;;;;4876937;29;20264;-81
2023/08/23 14:30:41;;;;;;;4.70;4.35;;;;;;;;;;4895141;29;20231;-82
2023/08/23 14:33:08;;;;;;;4.32;3.90;;;;;;;;;;4895971;29;20580;-81
2023/08/23 14:35:39;;;;;;;6.35;4.30;;;;;;;;;;4895474;29;20204;-81
2023/08/23 14:38:07;;;;;;;4.97;4.60;;;;;;;;;;4894950;29;20689;-82
2023/08/23 14:40:36;;;;;;;3.83;3.53;;;;;;;;;;4895944;29;20240;-83
2023/08/23 14:43:04;;;;;;;6.70;4.30;;;;;;;;;;4895919;29;20209;-83
2023/08/23 14:45:31;;;;;;;4.82;4.32;;;;;;;;;;4894965;29;20698;-82
2023/08/23 14:48:01;;;;;;;4.35;3.95;;;;;;;;;;4895385;29;20339;-82